createdAt,value
2024-04-21T00:01:20.290Z,89.34
2024-04-21T00:03:47.218Z,88.74
2024-04-21T00:06:13.929Z,88.03
2024-04-21T00:08:40.533Z,87.09
2024-04-21T00:11:07.160Z,86.74
2024-04-21T00:13:34.404Z,86.79
2024-04-21T00:16:01.053Z,87.15
2024-04-21T00:18:27.935Z,87.00
2024-04-21T00:20:54.564Z,87.54
2024-04-21T00:23:21.121Z,88.38
2024-04-21T00:25:57.261Z,88.98
2024-04-21T00:28:23.779Z,89.79
2024-04-21T00:30:50.381Z,89.39
2024-04-21T00:33:17.063Z,90.15
2024-04-21T00:35:45.972Z,89.77
2024-04-21T00:38:12.701Z,90.50
2024-04-21T00:40:39.319Z,91.18
2024-04-21T00:43:08.462Z,91.13
2024-04-21T00:45:40.548Z,91.17
2024-04-21T00:48:08.533Z,91.63
2024-04-21T00:50:36.034Z,91.82
2024-04-21T00:53:03.428Z,91.44
2024-04-21T00:55:30.251Z,90.15
2024-04-21T00:57:57.325Z,88.50
2024-04-21T01:00:24.539Z,87.94
2024-04-21T01:02:51.770Z,88.81
2024-04-21T01:05:18.482Z,88.25
2024-04-21T01:07:45.000Z,88.69
2024-04-21T01:10:11.838Z,88.85
2024-04-21T01:12:42.340Z,88.00
2024-04-21T01:15:10.459Z,88.43
2024-04-21T01:17:38.319Z,88.78
2024-04-21T01:20:05.559Z,89.10
2024-04-21T01:22:32.072Z,89.72
2024-04-21T01:24:58.584Z,90.01
2024-04-21T01:27:25.105Z,90.20
2024-04-21T01:29:51.672Z,90.33
2024-04-21T01:32:22.181Z,91.01
2024-04-21T01:34:49.371Z,90.64
2024-04-21T01:37:19.092Z,89.69
2024-04-21T01:39:45.797Z,89.16
2024-04-21T01:42:12.321Z,88.52
2024-04-21T01:44:41.929Z,88.26
2024-04-21T01:47:08.545Z,88.44
2024-04-21T01:49:35.072Z,87.94
2024-04-21T01:52:01.736Z,87.13
2024-04-21T01:54:28.228Z,87.32
2024-04-21T01:56:54.778Z,87.76
2024-04-21T01:59:21.321Z,87.71
2024-04-21T02:01:47.954Z,88.53
2024-04-21T02:04:14.596Z,88.25
2024-04-21T02:06:41.553Z,88.01
2024-04-21T02:09:08.109Z,88.14
2024-04-21T02:11:34.658Z,89.02
2024-04-21T02:14:01.253Z,89.01
2024-04-21T02:16:27.777Z,89.00
2024-04-21T02:18:54.303Z,89.24
2024-04-21T02:21:20.857Z,89.25
2024-04-21T02:23:48.846Z,89.30
2024-04-21T02:26:15.406Z,89.46
2024-04-21T02:28:43.351Z,89.50
2024-04-21T02:31:10.420Z,89.46
2024-04-21T02:33:37.791Z,90.12
2024-04-21T02:36:05.235Z,90.08
2024-04-21T02:38:32.374Z,89.87
2024-04-21T02:40:59.065Z,90.35
2024-04-21T02:43:25.620Z,89.93
2024-04-21T02:45:52.246Z,89.95
2024-04-21T02:48:18.839Z,90.75
2024-04-21T02:50:46.578Z,90.63
2024-04-21T02:53:12.979Z,90.85
2024-04-21T02:55:43.820Z,92.02
2024-04-21T02:58:10.630Z,92.94
2024-04-21T03:00:40.735Z,93.77
2024-04-21T03:03:07.516Z,94.06
2024-04-21T03:05:34.119Z,95.45
2024-04-21T03:08:00.989Z,95.44
2024-04-21T03:10:27.655Z,95.80
2024-04-21T03:12:54.464Z,95.60
2024-04-21T03:15:21.020Z,95.76
2024-04-21T03:17:47.663Z,95.66
2024-04-21T03:20:14.299Z,95.75
2024-04-21T03:22:40.841Z,95.93
2024-04-21T03:25:07.369Z,96.31
2024-04-21T03:27:34.019Z,96.08
2024-04-21T03:30:00.665Z,95.76
2024-04-21T03:32:27.434Z,96.27
2024-04-21T03:34:56.140Z,96.19
2024-04-21T03:37:23.096Z,95.96
2024-04-21T03:39:50.124Z,96.22
2024-04-21T03:42:16.629Z,96.18
2024-04-21T03:44:43.154Z,96.48
2024-04-21T03:47:09.681Z,96.31
2024-04-21T03:49:36.266Z,96.63
2024-04-21T03:52:02.975Z,96.06
2024-04-21T03:54:29.495Z,96.44
2024-04-21T03:56:55.998Z,96.28
2024-04-21T03:59:22.499Z,96.39
2024-04-21T04:01:49.073Z,97.08
2024-04-21T04:04:15.999Z,97.06
2024-04-21T04:06:42.582Z,97.07
2024-04-21T04:09:09.125Z,97.00
2024-04-21T04:11:35.759Z,97.31
2024-04-21T04:14:02.340Z,97.12
2024-04-21T04:16:28.897Z,96.90
2024-04-21T04:18:55.419Z,96.87
2024-04-21T04:21:22.572Z,96.58
2024-04-21T04:23:49.110Z,96.47
2024-04-21T04:26:15.647Z,95.83
2024-04-21T04:28:42.125Z,95.34
2024-04-21T04:31:08.952Z,95.43
2024-04-21T04:33:35.713Z,95.20
2024-04-21T04:36:02.346Z,94.86
2024-04-21T04:38:28.847Z,94.61
2024-04-21T04:40:55.329Z,94.95
2024-04-21T04:43:21.919Z,94.75
2024-04-21T04:45:48.553Z,94.42
2024-04-21T04:48:15.151Z,94.66
2024-04-21T04:50:41.950Z,95.09
2024-04-21T04:53:08.453Z,94.90
2024-04-21T04:55:34.936Z,95.18
2024-04-21T04:58:01.498Z,95.53
2024-04-21T05:00:28.052Z,95.95
2024-04-21T05:02:54.608Z,96.29
2024-04-21T05:05:21.135Z,96.72
2024-04-21T05:07:47.704Z,97.07
2024-04-21T05:10:15.242Z,97.08
2024-04-21T05:12:41.855Z,97.37
2024-04-21T05:15:08.454Z,97.77
2024-04-21T05:17:35.132Z,97.87
2024-04-21T05:20:02.167Z,97.64
2024-04-21T05:22:28.741Z,97.89
2024-04-21T05:24:55.313Z,97.61
2024-04-21T05:27:21.825Z,97.82
2024-04-21T05:29:48.365Z,98.27
2024-04-21T05:32:14.940Z,98.39
2024-04-21T05:34:41.491Z,98.16
2024-04-21T05:37:08.106Z,98.35
2024-04-21T05:39:34.762Z,98.84
2024-04-21T05:42:01.244Z,98.64
2024-04-21T05:44:29.030Z,98.50
2024-04-21T05:46:55.455Z,98.58
2024-04-21T05:49:22.270Z,98.51
2024-04-21T05:51:50.010Z,98.65
2024-04-21T05:54:16.606Z,98.50
2024-04-21T05:56:43.650Z,98.28
2024-04-21T05:59:10.269Z,98.27
2024-04-21T06:01:37.053Z,98.49
2024-04-21T06:04:03.727Z,98.57
2024-04-21T06:06:30.296Z,98.14
2024-04-21T06:08:56.898Z,98.32
2024-04-21T06:11:23.395Z,98.12
2024-04-21T06:13:49.914Z,98.04
2024-04-21T06:16:16.594Z,97.53
2024-04-21T06:18:46.771Z,97.29
2024-04-21T06:21:15.662Z,97.09
2024-04-21T06:23:42.210Z,96.74
2024-04-21T06:26:09.003Z,96.62
2024-04-21T06:28:35.548Z,96.93
2024-04-21T06:31:02.126Z,96.74
2024-04-21T06:33:28.664Z,96.50
2024-04-21T06:35:55.297Z,96.33
2024-04-21T06:38:21.846Z,96.19
2024-04-21T06:40:48.372Z,96.09
2024-04-21T06:43:14.925Z,96.07
2024-04-21T06:45:46.708Z,95.71
2024-04-21T06:48:13.836Z,95.87
2024-04-21T06:50:40.600Z,96.17
2024-04-21T06:53:07.141Z,96.58
2024-04-21T06:55:33.689Z,96.63
2024-04-21T06:58:00.590Z,96.33
2024-04-21T07:00:27.223Z,97.28
2024-04-21T07:02:53.728Z,97.25
2024-04-21T07:05:20.248Z,96.70
2024-04-21T07:07:46.824Z,96.49
2024-04-21T07:10:13.382Z,96.27
2024-04-21T07:12:39.967Z,95.58
2024-04-21T07:15:07.081Z,95.33
2024-04-21T07:17:33.669Z,95.14
2024-04-21T07:20:01.603Z,94.69
2024-04-21T07:22:28.182Z,94.73
2024-04-21T07:24:56.711Z,94.82
2024-04-21T07:27:27.034Z,93.89
2024-04-21T07:29:53.565Z,93.80
2024-04-21T07:32:20.239Z,93.59
2024-04-21T07:34:46.806Z,93.18
2024-04-21T07:37:13.397Z,92.93
2024-04-21T07:39:40.027Z,92.83
2024-04-21T07:42:06.831Z,93.00
2024-04-21T07:44:33.422Z,90.79
2024-04-21T07:46:59.951Z,89.80
2024-04-21T07:49:26.590Z,89.96
2024-04-21T07:51:53.351Z,88.91
2024-04-21T07:54:19.852Z,89.56
2024-04-21T07:56:46.855Z,87.86
2024-04-21T07:59:13.361Z,86.69
2024-04-21T08:01:40.052Z,87.72
2024-04-21T08:04:06.627Z,87.96
2024-04-21T08:06:33.257Z,86.88
2024-04-21T08:09:07.163Z,84.86
2024-04-21T08:11:39.267Z,85.46
2024-04-21T08:14:06.118Z,85.13
2024-04-21T08:16:34.467Z,83.89
2024-04-21T08:19:01.078Z,84.22
2024-04-21T08:21:27.601Z,83.65
2024-04-21T08:23:54.085Z,84.04
2024-04-21T08:26:23.601Z,84.75
2024-04-21T08:28:52.268Z,84.16
2024-04-21T08:31:18.847Z,84.39
2024-04-21T08:33:45.622Z,83.91
2024-04-21T08:36:12.266Z,83.67
2024-04-21T08:38:38.886Z,82.76
2024-04-21T08:41:12.793Z,82.93
2024-04-21T08:43:40.420Z,80.96
2024-04-21T08:46:06.853Z,81.86
2024-04-21T08:48:33.540Z,80.65
2024-04-21T08:51:00.802Z,77.03
2024-04-21T08:53:27.693Z,77.23
2024-04-21T08:55:59.252Z,77.04
2024-04-21T08:58:27.026Z,78.37
2024-04-21T09:00:56.535Z,78.37
2024-04-21T09:03:23.207Z,78.53
2024-04-21T09:05:55.380Z,77.43
2024-04-21T09:08:21.938Z,77.61
2024-04-21T09:10:48.578Z,76.96
2024-04-21T09:13:15.788Z,76.19
2024-04-21T09:15:42.741Z,76.10
2024-04-21T09:18:09.433Z,76.31
2024-04-21T09:20:36.278Z,75.98
2024-04-21T09:23:02.829Z,75.88
2024-04-21T09:25:29.428Z,75.43
2024-04-21T09:27:56.275Z,75.05
2024-04-21T09:30:23.305Z,74.48
2024-04-21T09:32:49.974Z,75.58
2024-04-21T09:35:16.581Z,76.51
2024-04-21T09:37:47.126Z,76.71
2024-04-21T09:40:16.010Z,75.50
2024-04-21T09:42:43.650Z,76.58
2024-04-21T09:45:10.122Z,76.50
2024-04-21T09:47:38.583Z,73.33
2024-04-21T09:50:09.879Z,74.36
2024-04-21T09:52:38.123Z,73.21
2024-04-21T09:55:05.002Z,72.85
2024-04-21T09:57:37.227Z,72.73
2024-04-21T10:00:06.219Z,72.20
2024-04-21T10:02:46.480Z,73.01
2024-04-21T10:05:16.491Z,73.06
2024-04-21T10:07:44.550Z,71.86
2024-04-21T10:10:12.872Z,70.85
2024-04-21T10:12:40.452Z,70.31
2024-04-21T10:15:08.025Z,68.85
2024-04-21T10:17:37.243Z,71.13
2024-04-21T10:20:13.118Z,71.02
2024-04-21T10:22:39.893Z,69.43
2024-04-21T10:25:09.004Z,69.00
2024-04-21T10:27:35.553Z,69.34
2024-04-21T10:30:12.853Z,71.05
2024-04-21T10:32:39.395Z,68.91
2024-04-21T10:35:06.081Z,63.90
2024-04-21T10:37:33.458Z,63.36
2024-04-21T10:40:03.548Z,63.07
2024-04-21T10:42:34.678Z,64.51
2024-04-21T10:45:01.558Z,63.29
2024-04-21T10:47:28.254Z,64.30
2024-04-21T10:49:55.052Z,64.41
2024-04-21T10:52:21.692Z,63.40
2024-04-21T10:54:49.068Z,60.40
2024-04-21T10:57:15.984Z,60.74
2024-04-21T10:59:42.767Z,60.85
2024-04-21T11:02:09.322Z,63.16
2024-04-21T11:04:37.417Z,61.15
2024-04-21T11:07:05.111Z,61.26
2024-04-21T11:09:31.775Z,62.59
2024-04-21T11:11:58.385Z,62.46
2024-04-21T11:14:26.660Z,63.04
2024-04-21T11:16:54.018Z,62.97
2024-04-21T11:19:20.925Z,64.85
2024-04-21T11:21:49.311Z,65.01
2024-04-21T11:24:17.176Z,65.32
2024-04-21T11:26:44.030Z,65.00
2024-04-21T11:29:11.528Z,63.58
2024-04-21T11:31:38.180Z,63.11
2024-04-21T11:34:08.425Z,63.13
2024-04-21T11:36:35.583Z,63.75
2024-04-21T11:39:02.545Z,63.97
2024-04-21T11:41:30.818Z,63.33
2024-04-21T11:43:58.598Z,64.66
2024-04-21T11:46:25.823Z,62.48
2024-04-21T11:48:55.157Z,62.99
2024-04-21T11:51:22.006Z,62.88
2024-04-21T11:53:51.506Z,63.44
2024-04-21T11:56:18.054Z,63.86
2024-04-21T11:58:46.205Z,63.42
2024-04-21T12:01:12.869Z,63.01
2024-04-21T12:03:39.583Z,63.47
2024-04-21T12:06:06.232Z,63.38
2024-04-21T12:08:32.749Z,62.91
2024-04-21T12:10:59.423Z,63.63
2024-04-21T12:13:26.028Z,63.24
2024-04-21T12:15:52.837Z,64.44
2024-04-21T12:18:19.405Z,62.62
2024-04-21T12:20:46.043Z,63.10
2024-04-21T12:23:12.626Z,62.07
2024-04-21T12:25:39.352Z,59.96
2024-04-21T12:28:06.655Z,61.07
2024-04-21T12:30:36.463Z,60.27
2024-04-21T12:33:03.336Z,61.13
2024-04-21T12:35:31.008Z,61.01
2024-04-21T12:37:57.615Z,62.87
2024-04-21T12:40:24.348Z,61.22
2024-04-21T12:42:52.470Z,60.17
2024-04-21T12:45:19.160Z,60.72
2024-04-21T12:47:45.758Z,60.82
2024-04-21T12:50:12.398Z,60.44
2024-04-21T12:52:39.141Z,61.39
2024-04-21T12:55:06.316Z,60.95
2024-04-21T12:57:33.056Z,60.11
2024-04-21T12:59:59.570Z,59.49
2024-04-21T13:02:26.125Z,58.63
2024-04-21T13:04:52.960Z,59.56
2024-04-21T13:07:19.655Z,59.28
2024-04-21T13:09:47.582Z,57.09
2024-04-21T13:12:14.298Z,59.18
2024-04-21T13:14:40.835Z,58.71
2024-04-21T13:17:07.440Z,58.48
2024-04-21T13:19:37.792Z,57.81
2024-04-21T13:22:04.726Z,57.87
2024-04-21T13:24:31.259Z,57.79
2024-04-21T13:26:57.777Z,57.45
2024-04-21T13:29:24.287Z,57.38
2024-04-21T13:31:50.801Z,58.38
2024-04-21T13:34:17.324Z,59.33
2024-04-21T13:36:43.881Z,58.93
2024-04-21T13:39:10.951Z,58.85
2024-04-21T13:41:37.600Z,59.98
2024-04-21T13:44:04.455Z,61.46
2024-04-21T13:46:31.465Z,61.76
2024-04-21T13:48:58.228Z,64.14
2024-04-21T13:51:31.600Z,65.74
2024-04-21T13:53:59.611Z,65.88
2024-04-21T13:56:26.295Z,65.23
2024-04-21T13:58:52.812Z,66.42
2024-04-21T14:01:19.513Z,67.96
2024-04-21T14:03:46.165Z,68.52
2024-04-21T14:06:13.255Z,68.70
2024-04-21T14:08:39.777Z,69.49
2024-04-21T14:11:06.339Z,70.21
2024-04-21T14:13:32.925Z,66.92
2024-04-21T14:15:59.841Z,68.39
2024-04-21T14:18:28.415Z,68.07
2024-04-21T14:20:56.192Z,67.39
2024-04-21T14:23:22.952Z,66.04
2024-04-21T14:25:49.490Z,67.47
2024-04-21T14:28:16.102Z,66.87
2024-04-21T14:30:42.658Z,65.15
2024-04-21T14:33:09.299Z,63.88
2024-04-21T14:35:35.923Z,64.47
2024-04-21T14:38:02.439Z,64.93
2024-04-21T14:40:29.035Z,66.73
2024-04-21T14:42:55.712Z,66.25
2024-04-21T14:45:23.175Z,67.83
2024-04-21T14:47:55.649Z,68.35
2024-04-21T14:50:22.765Z,69.99
2024-04-21T14:52:52.376Z,71.55
2024-04-21T14:55:19.191Z,73.17
2024-04-21T14:57:48.337Z,72.31
2024-04-21T15:00:15.372Z,72.55
2024-04-21T15:02:42.144Z,73.52
2024-04-21T15:05:09.585Z,74.19
2024-04-21T15:07:37.273Z,76.30
2024-04-21T15:10:06.929Z,75.31
2024-04-21T15:12:33.494Z,73.85
2024-04-21T15:15:00.050Z,73.87
2024-04-21T15:17:26.617Z,74.14
2024-04-21T15:19:53.191Z,74.85
2024-04-21T15:22:20.843Z,75.68
2024-04-21T15:24:47.513Z,75.46
2024-04-21T15:27:14.200Z,76.31
2024-04-21T15:29:40.699Z,75.26
2024-04-21T15:32:07.613Z,72.95
2024-04-21T15:34:34.324Z,72.00
2024-04-21T15:37:01.845Z,71.82
2024-04-21T15:39:30.029Z,72.14
2024-04-21T15:41:56.561Z,72.96
2024-04-21T15:44:23.541Z,74.06
2024-04-21T15:46:50.264Z,74.16
2024-04-21T15:49:17.148Z,76.04
2024-04-21T15:51:43.757Z,77.65
2024-04-21T15:54:10.436Z,79.73
2024-04-21T15:56:37.058Z,81.64
2024-04-21T15:59:03.943Z,82.69
2024-04-21T16:01:30.625Z,83.84
2024-04-21T16:03:57.257Z,84.54
2024-04-21T16:06:23.937Z,84.63
2024-04-21T16:08:50.502Z,84.78
2024-04-21T16:11:17.070Z,86.51
2024-04-21T16:13:43.589Z,86.38
2024-04-21T16:16:10.112Z,87.96
2024-04-21T16:18:36.663Z,89.00
2024-04-21T16:21:03.534Z,89.09
2024-04-21T16:23:30.078Z,90.81
2024-04-21T16:25:56.639Z,91.56
2024-04-21T16:28:23.158Z,91.17
2024-04-21T16:30:49.696Z,91.90
2024-04-21T16:33:16.265Z,90.98
2024-04-21T16:35:43.146Z,90.60
2024-04-21T16:38:10.211Z,91.27
2024-04-21T16:40:37.560Z,90.65
2024-04-21T16:43:04.543Z,90.98
2024-04-21T16:45:32.087Z,90.94
2024-04-21T16:48:06.520Z,90.42
2024-04-21T16:50:33.643Z,91.22
2024-04-21T16:53:00.468Z,91.96
2024-04-21T16:55:27.410Z,91.99
2024-04-21T16:57:55.929Z,92.38
2024-04-21T17:00:23.388Z,91.94
2024-04-21T17:02:51.032Z,92.65
2024-04-21T17:05:17.709Z,91.70
2024-04-21T17:08:07.399Z,91.16
2024-04-21T17:10:34.849Z,91.70
2024-04-21T17:13:01.604Z,92.02
2024-04-21T17:15:28.690Z,91.22
2024-04-21T17:17:55.460Z,91.13
2024-04-21T17:20:22.039Z,92.21
2024-04-21T17:22:48.832Z,92.24
2024-04-21T17:25:15.500Z,93.07
2024-04-21T17:27:42.039Z,93.49
2024-04-21T17:30:08.697Z,93.51
2024-04-21T17:32:35.920Z,93.30
2024-04-21T17:35:02.546Z,93.71
2024-04-21T17:37:29.111Z,93.75
2024-04-21T17:39:55.701Z,93.57
2024-04-21T17:42:22.387Z,93.83
2024-04-21T17:44:48.878Z,92.85
2024-04-21T17:47:15.438Z,92.04
2024-04-21T17:49:41.982Z,93.05
2024-04-21T17:52:09.086Z,92.18
2024-04-21T17:54:36.996Z,91.53
2024-04-21T17:57:03.797Z,91.96
2024-04-21T17:59:30.293Z,90.95
2024-04-21T18:01:56.775Z,91.33
2024-04-21T18:04:23.353Z,91.82
2024-04-21T18:06:50.158Z,90.63
2024-04-21T18:09:16.660Z,90.34
2024-04-21T18:11:43.231Z,90.05
2024-04-21T18:14:09.803Z,90.16
2024-04-21T18:16:36.332Z,89.80
2024-04-21T18:19:03.342Z,89.46
2024-04-21T18:21:30.428Z,88.75
2024-04-21T18:23:56.976Z,88.38
2024-04-21T18:26:23.490Z,88.89
2024-04-21T18:28:50.031Z,88.78
2024-04-21T18:31:16.666Z,89.41
2024-04-21T18:33:43.297Z,89.18
2024-04-21T18:36:09.824Z,89.07
2024-04-21T18:38:36.354Z,87.92
2024-04-21T18:41:02.884Z,89.05
2024-04-21T18:43:30.303Z,88.60
2024-04-21T18:45:56.896Z,89.23
2024-04-21T18:48:23.490Z,88.67
2024-04-21T18:50:50.046Z,88.46
2024-04-21T18:53:20.717Z,88.54
2024-04-21T18:55:48.420Z,87.91
2024-04-21T18:58:15.055Z,87.87
2024-04-21T19:00:42.744Z,87.56
2024-04-21T19:03:09.350Z,87.80
2024-04-21T19:05:41.682Z,87.12
2024-04-21T19:08:09.065Z,87.71
2024-04-21T19:10:41.441Z,88.16
2024-04-21T19:13:09.028Z,87.90
2024-04-21T19:15:35.928Z,86.88
2024-04-21T19:18:03.041Z,87.15
2024-04-21T19:20:30.315Z,87.87
2024-04-21T19:22:57.193Z,88.34
2024-04-21T19:25:26.365Z,87.79
2024-04-21T19:27:52.965Z,88.26
2024-04-21T19:30:19.517Z,87.56
2024-04-21T19:32:46.425Z,88.31
2024-04-21T19:35:12.990Z,87.99
2024-04-21T19:37:40.938Z,87.29
2024-04-21T19:40:08.560Z,88.22
2024-04-21T19:42:35.060Z,88.40
2024-04-21T19:45:01.577Z,89.34
2024-04-21T19:47:28.208Z,89.75
2024-04-21T19:49:54.733Z,89.72
2024-04-21T19:52:21.624Z,90.50
2024-04-21T19:54:48.187Z,90.70
2024-04-21T19:57:14.711Z,90.22
2024-04-21T19:59:42.830Z,90.60
2024-04-21T20:02:09.505Z,90.85
2024-04-21T20:04:38.330Z,90.34
2024-04-21T20:07:04.978Z,90.78
2024-04-21T20:09:31.531Z,90.03
2024-04-21T20:11:58.142Z,90.20
2024-04-21T20:14:24.647Z,90.89
2024-04-21T20:17:10.880Z,91.25
2024-04-21T20:19:37.492Z,91.31
2024-04-21T20:22:06.978Z,91.47
2024-04-21T20:24:33.760Z,90.85
2024-04-21T20:27:00.266Z,90.98
2024-04-21T20:29:26.813Z,91.76
2024-04-21T20:31:54.201Z,91.84
2024-04-21T20:34:20.833Z,91.27
2024-04-21T20:36:47.423Z,91.69
2024-04-21T20:39:13.984Z,90.89
2024-04-21T20:41:42.195Z,90.64
2024-04-21T20:44:08.701Z,91.52
2024-04-21T20:46:35.348Z,90.61
2024-04-21T20:49:02.200Z,90.81
2024-04-21T20:51:28.723Z,90.62
2024-04-21T20:53:55.261Z,90.91
2024-04-21T20:56:21.752Z,90.63
2024-04-21T20:58:52.587Z,90.69
2024-04-21T21:01:20.623Z,90.80
2024-04-21T21:03:47.603Z,90.92
2024-04-21T21:06:14.294Z,91.04
2024-04-21T21:08:40.981Z,90.89
2024-04-21T21:11:07.487Z,91.32
2024-04-21T21:13:34.172Z,90.82
2024-04-21T21:16:01.972Z,91.03
2024-04-21T21:18:29.134Z,91.25
2024-04-21T21:20:55.842Z,91.25
2024-04-21T21:23:24.256Z,91.08
2024-04-21T21:25:51.596Z,91.30
2024-04-21T21:28:18.340Z,91.41
2024-04-21T21:30:44.897Z,91.39
2024-04-21T21:33:11.567Z,91.29
2024-04-21T21:35:38.919Z,91.25
2024-04-21T21:38:05.408Z,91.77
2024-04-21T21:40:31.976Z,91.50
2024-04-21T21:42:58.486Z,91.95
2024-04-21T21:45:25.022Z,91.77
2024-04-21T21:47:51.682Z,92.05
2024-04-21T21:50:18.386Z,91.65
2024-04-21T21:52:44.894Z,91.84
2024-04-21T21:55:11.585Z,92.02
2024-04-21T21:57:39.243Z,92.11
2024-04-21T22:00:06.784Z,92.62
2024-04-21T22:02:33.349Z,92.51
2024-04-21T22:04:59.880Z,92.35
2024-04-21T22:07:26.455Z,92.71
2024-04-21T22:09:52.995Z,92.64
2024-04-21T22:12:19.556Z,92.67
2024-04-21T22:14:46.092Z,92.48
2024-04-21T22:17:12.628Z,92.00
2024-04-21T22:19:39.220Z,92.32
2024-04-21T22:22:05.795Z,92.66
2024-04-21T22:24:32.305Z,92.82
2024-04-21T22:26:58.864Z,92.91
2024-04-21T22:29:25.362Z,92.37
2024-04-21T22:31:57.746Z,92.47
2024-04-21T22:34:25.004Z,92.78
2024-04-21T22:36:51.642Z,92.88
2024-04-21T22:39:18.145Z,92.79
2024-04-21T22:41:45.619Z,92.27
2024-04-21T22:44:13.270Z,92.48
2024-04-21T22:46:39.805Z,92.37
2024-04-21T22:49:06.390Z,92.60
2024-04-21T22:51:32.921Z,92.71
2024-04-21T22:53:59.521Z,92.32
2024-04-21T22:56:26.292Z,92.94
2024-04-21T22:58:52.827Z,92.68
2024-04-21T23:01:19.440Z,92.56
2024-04-21T23:03:46.068Z,92.83
2024-04-21T23:06:14.234Z,92.63
2024-04-21T23:08:40.792Z,92.89
2024-04-21T23:11:07.353Z,92.79
2024-04-21T23:13:34.142Z,93.04
2024-04-21T23:16:05.117Z,93.05
2024-04-21T23:18:31.736Z,93.07
2024-04-21T23:20:58.362Z,93.01
2024-04-21T23:23:24.854Z,93.38
2024-04-21T23:25:51.566Z,93.51
2024-04-21T23:28:18.167Z,93.38
2024-04-21T23:30:46.026Z,93.47
2024-04-21T23:33:12.636Z,93.68
2024-04-21T23:35:39.297Z,93.87
2024-04-21T23:38:07.594Z,93.89
2024-04-21T23:40:34.398Z,93.76
2024-04-21T23:43:00.946Z,93.97
2024-04-21T23:45:27.492Z,94.15
2024-04-21T23:47:54.101Z,94.39
2024-04-21T23:50:20.663Z,94.38
2024-04-21T23:52:47.245Z,94.42
2024-04-21T23:55:13.917Z,94.48
2024-04-21T23:57:40.416Z,93.98
